KMUI

Muir AAF (Fort Indiantown Gap) Airport

Fort Indiantown Gap(Annville), Pennsylvania, USA
METAR KMUI 220156Z AUTO 00000KT 10SM CLR 18/14 A3014 RMK AO2 SLP208 T01750140
Observed Flight Rules
May-22 @ 01:56 UTC (45 minutes ago) Visual Flight Rules
Visibility Clouds
10 miles
  • Clear skies
Temperatures Readings
Current 18°C / 64°F
Dewpoint 14°C / 57°F
Humidity 78%
Altimeter 30.14" Hg
Pressure 1020.8 hPa
Elevation 149
METAR KMUI 220156Z AUTO 00000KT 10SM CLR 18/14 A3014 RMK AO2 SLP208 T01750140
Observed Flight Rules
May-22 @ 01:56 UTC
(45 minutes ago)
VFR
Clouds
  • Clear skies
Temperature Dewpoint
18°C / 64°F 14°C / 57°F
Humidity Altimeter Pressure
78% 30.14" Hg 1020.8 hPa